< Typhoon 201920 2019 Season Typhoon 201922 >
Typhoon 201921 (BUALOI)
General InformationTrack Information on Google MapsDetailed Wind InformationForecast History on Google MapsAccess Analytics MapList of All Images || NewsDisaster Info.WeblogTrackbackTyphoon FrontTwiphoonTyphoon Now!Typhoon ImaginationJMA Disaster Info. XMLResourceGoogle EarthGE AnimationAtom FeedGeoJSON
Detalied Best Track (Time Zone = UTC)
Year Month Day Hour Lat. Long. Pressure (hPa) Wind (kt) Class Image Chart
2019 10 18 06 8.7 161.2 1008 0 2 Image Chart
2019 10 18 12 8.9 159.9 1008 0 2 Image Chart
2019 10 18 18 9.4 157.7 1008 0 2 Image Chart
2019 10 19 00 10.2 156.4 1006 0 2 Image Chart
2019 10 19 06 10.6 155.0 1000 35 3 Image Chart
2019 10 19 12 10.9 153.9 998 40 3 Image Chart
2019 10 19 18 11.0 152.6 994 45 3 Image Chart
2019 10 20 00 11.3 151.5 990 50 4 Image Chart
2019 10 20 06 12.1 150.6 985 55 4 Image Chart
2019 10 20 12 12.6 149.8 975 65 5 Image Chart
2019 10 20 18 13.5 149.0 970 70 5 Image Chart
2019 10 21 00 14.1 148.2 965 75 5 Image Chart
2019 10 21 06 14.7 147.6 955 85 5 Image Chart
2019 10 21 12 15.4 146.8 955 85 5 Image Chart
2019 10 21 18 16.3 146.0 955 85 5 Image Chart
2019 10 22 00 17.1 145.0 950 90 5 Image Chart
2019 10 22 06 18.2 144.4 935 100 5 Image Chart
2019 10 22 12 19.2 143.6 935 100 5 Image Chart
2019 10 22 18 20.3 143.1 935 100 5 Image Chart
2019 10 23 00 21.7 142.4 950 90 5 Image Chart
2019 10 23 06 22.8 142.1 940 95 5 Image Chart
2019 10 23 12 24.0 142.0 950 90 5 Image Chart
2019 10 23 15 24.8 142.0 950 90 5 Image Chart
2019 10 23 18 25.6 141.9 955 85 5 Image Chart
2019 10 23 21 26.1 142.0 960 80 5 Image Chart
2019 10 24 00 26.9 142.1 960 80 5 Image Chart
2019 10 24 03 27.6 142.2 970 75 5 Image Chart
2019 10 24 06 28.4 142.6 970 75 5 Image Chart
2019 10 24 12 29.6 143.7 970 75 5 Image Chart
2019 10 24 18 30.9 145.0 975 70 5 Image Chart
2019 10 25 00 32.4 146.3 980 65 5 Image Chart
2019 10 25 06 34.1 148.1 985 60 4 Image Chart
2019 10 25 12 35.1 148.6 996 0 6 Image Chart
2019 10 25 18 36.6 149.0 1004 0 6 Image Chart
2019 10 26 00 38.5 149.4 1004 0 6 Image Chart
Japan Meteorological Agency Best Track Data | Correction Date : 2019-12-18
< Typhoon 201920 2019 Season Typhoon 201922 >

Help